ADDS METAR Data INFO
IDs: Format: Raw Decoded Include TAF

Data at: 0929 UTC 17 Oct 2017

PAHX 170907Z AUTO 04004KT 10SM BKN013 BKN025 BKN035 M01/M01 A2960 RMK AO2 FZRANO
PAHX 170856Z AUTO 05003KT 10SM SCT013 BKN025 BKN035 M01/M01 A2960 RMK AO2 SLP023 T10061011 400221006 56008 FZRANO
PAHX 170853Z AUTO 05004KT 10SM SCT013 BKN025 BKN035 M01/M01 A2960 RMK AO2 400221006 FZRANO
PAHX 170756Z AUTO 00000KT 10SM OVC011 M01/M01 A2961 RMK AO2 SLP029 T10061011 FZRANO
PAHX 170749Z AUTO 00000KT 10SM OVC011 M01/M01 A2961 RMK AO2 FZRANO
PAHX 170735Z AUTO 00000KT 10SM BKN009 OVC019 M01/M01 A2961 RMK AO2 FZRANO
PAHX 170717Z AUTO 04004KT 10SM SCT009 SCT019 OVC035 M01/M01 A2962 RMK AO2 FZRANO
PAHX 170706Z AUTO 05003KT 10SM FEW017 OVC035 M01/M01 A2962 RMK AO2 FZRANO
PAHX 170656Z AUTO 06003KT 10SM FEW009 BKN017 OVC035 00/M01 A2962 RMK AO2 SLP031 T00001006 FZRANO
PAHX 170556Z AUTO 08004KT 10SM OVC019 00/M01 A2963 RMK AO2 SLP033 T00001006 10022 20000 58005 FZRANO
PAHX 170540Z AUTO 05003KT 10SM SCT007 OVC021 00/M01 A2963 RMK AO2 FZRANO
PAHX 170456Z AUTO 06003KT 10SM OVC007 00/M01 A2964 RMK AO2 SLP037 T00001006 FZRANO
PAHX 170419Z AUTO 00000KT 10SM OVC007 01/00 A2964 RMK AO2 FZRANO
PAHX 170352Z AUTO 35003KT 10SM OVC005 01/00 A2964 RMK AO2 CIG 003V008 FZRANO
PAHX 170256Z AUTO 00000KT 7SM OVC003 01/00 A2965 RMK AO2 SLP041 T00110000 58008 FZRANO
PAHX 170244Z AUTO 00000KT 4SM BR OVC003 01/00 A2965 RMK AO2 FZRANO
PAHX 170156Z AUTO 27003KT 10SM OVC005 02/01 A2966 RMK AO2 SLP044 T00170006 FZRANO
PAHX 170056Z AUTO 31003KT 10SM OVC005 02/01 A2966 RMK AO2 SLP046 T00220011 FZRANO
PAHX 170010Z AUTO 00000KT 10SM OVC005 02/01 A2967 RMK AO2 CIG 004V009 FZRANO
PAHX 162356Z AUTO 26005KT 10SM OVC008 02/01 A2967 RMK AO2 UPE12RAB12E13 CIG 004V011 SLP049 P0000 60000 T00220011 10022 20000 51001 FZRANO
PAHX 162317Z AUTO 00000KT 10SM BKN006 OVC010 02/02 A2967 RMK AO2 UPE12RAB12E13 CIG 004V009 P0000 FZRANO
PAHX 162304Z AUTO 25003KT 3SM UP BR OVC004 02/02 A2967 RMK AO2 P0000 FZRANO
PAHX 162256Z AUTO 00000KT 1 3/4SM UP BR OVC004 02/02 A2967 RMK AO2 RAE37UPB51 SLP049 P0000 T00220017 FZRANO
PAHX 162233Z AUTO 00000KT 2 1/2SM -RA BR BKN004 OVC034 02/01 A2967 RMK AO2 P0000 FZRANO
PAHX 162221Z AUTO 00000KT 2SM -RA BR SCT004 OVC032 01/01 A2967 RMK AO2 P0000 FZRANO
PAHX 162211Z AUTO 26003KT 3SM -RA BR BKN004 OVC032 01/01 A2967 RMK AO2 P0000 FZRANO
PAHX 162156Z AUTO 27003KT 2 1/2SM -RA BR OVC004 01/01 A2967 RMK AO2 RAE00B25UPB00E25 SLP049 P0000 T00110006 FZRANO
PAHX 162115Z AUTO 00000KT 4SM UP BR OVC004 01/01 A2967 RMK AO2 RAE00UPB00 P0000 FZRANO
PAHX 162056Z AUTO 00000KT 2SM -RA BR OVC004 01/01 A2967 RMK AO2 RAE1959B17 SLP048 P0000 60000 T00110006 51007 FZRANO
PAHX 162045Z AUTO 00000KT 1 3/4SM -RA BR OVC004 01/01 A2967 RMK AO2 RAE1959B17 P0000 FZRANO
PAHX 162037Z AUTO 00000KT 2SM -RA BR OVC004 01/01 A2967 RMK AO2 RAE1959B17 P0000 FZRANO
PAHX 162027Z AUTO 00000KT 4SM -RA BR OVC004 01/00 A2967 RMK AO2 RAE1959B17 CIG 003V007 P0000 FZRANO
PAHX 161956Z AUTO 00000KT 10SM -RA OVC006 01/00 A2966 RMK AO2 RAE31B48 CIG 003V008 SLP046 P0000 T00060000 FZRANO
PAHX 161931Z AUTO 00000KT 6SM BR OVC006 01/00 A2966 RMK AO2 RAE31 P0000 FZRANO
PAHX 161922Z AUTO 02003KT 2 1/2SM -RA BR OVC006 01/00 A2966 RMK AO2 VIS 2V4 P0000 FZRANO
PAHX 161906Z AUTO 03003KT 4SM -RA BR OVC008 01/00 A2966 RMK AO2 CIG 005V012 P0000 FZRANO
PAHX 161856Z AUTO 00000KT 4SM -RA BR OVC011 01/00 A2966 RMK AO2 UPB02E31RAB31SNE02 SLP044 P0000 T00060000 FZRANO
PAHX 161826Z AUTO 11003KT 10SM UP OVC013 01/M01 A2965 RMK AO2 UPB02SNE02 P0000 FZRANO
PAHX 161756Z AUTO 00000KT 9SM -SN OVC015 00/M01 A2965 RMK AO2 SLP041 P0000 60000 T00001006 10006 21006 53003 FZRANO
PAHX 161706Z AUTO 00000KT 9SM -SN BKN015 OVC036 00/M01 A2965 RMK AO2 P0000 FZRANO
PAHX 161656Z AUTO 08004KT 10SM -SN SCT015 BKN036 OVC047 00/M01 A2965 RMK AO2 UPB46E51SNB51 SLP040 P0000 T00001006 FZRANO
PAHX 161637Z AUTO 10003KT 10SM SCT015 BKN037 OVC070 00/M01 A2965 RMK AO2 FZRANO
PAHX 161556Z AUTO 11004KT 10SM SCT037 OVC070 M01/M01 A2964 RMK AO2 SLP039 T10061006 FZRANO
PAHX 161456Z AUTO 00000KT 10SM FEW037 BKN070 OVC120 M01/M01 A2964 RMK AO2 SLP038 T10061006 52002 FZRANO
PAHX 161256Z AUTO 03004KT 10SM OVC033 00/M01 A2964 RMK AO2 SLP036 T00001006 FZRANO
PAHX 161156Z AUTO 00000KT 10SM OVC035 01/M01 A2963 RMK AO2 SLP036 60000 70008 T00061006 10022 20006 51001 FZRANO
PAHX 161056Z AUTO 08004KT 10SM OVC035 01/00 A2963 RMK AO2 SLP035 T00110000 FZRANO
PAHX 160956Z AUTO 06003KT 10SM BKN037 OVC060 01/00 A2963 RMK AO2 RAE35UPB20E24 SLP035 P0000 T00110000 FZRANO
PAHX 160856Z AUTO 11003KT 10SM -RA OVC047 01/01 A2963 RMK AO2 RAB18 SLP034 P0000 60000 T00110006 400390006 52009 FZRANO
PAHX 160756Z AUTO 08003KT 10SM BKN034 BKN041 OVC055 02/01 A2962 RMK AO2 RAE10 SLP031 P0000 T00170006 FZRANO
PAHX 160656Z AUTO 12005KT 10SM -RA BKN032 OVC043 02/01 A2961 RMK AO2 RAE16B44 SLP028 P0000 T00170011 FZRANO
PAHX 160556Z AUTO 13003KT 10SM -RA FEW035 OVC045 02/01 A2960 RMK AO2 SLP025 P0000 60000 T00220006 10039 20022 53004 FZRANO
PAHX 160456Z AUTO 11004KT 10SM -RA OVC043 02/01 A2959 RMK AO2 UPB35E49 SLP022 P0000 T00220011 FZRANO
PAHX 160356Z AUTO 13004KT 10SM -RA OVC043 03/01 A2959 RMK AO2 RAE11B50UPB11E50 SLP021 P0000 T00280006
PAHX 160256Z AUTO 12003KT 10SM -RA OVC050 03/02 A2959 RMK AO2 SLP021 P0000 60000 T00330017 55002
PAHX 160156Z AUTO 11004KT 10SM -RA FEW013 SCT021 OVC055 03/02 A2959 RMK AO2 UPB53E55 SLP021 P0000 T00330017
PAHX 160120Z AUTO 11006KT 10SM -RA SCT011 SCT019 OVC025 03/02 A2959 RMK AO2 P0000
PAHX 160056Z AUTO 12006KT 10SM -RA BKN013 OVC018 03/02 A2959 RMK AO2 RAE05B25 SLP022 P0000 T00330017
PAHX 160036Z AUTO 12005KT 10SM -RA BKN013 OVC018 03/02 A2960 RMK AO2 RAE05B25 P0000
PAHX 152356Z AUTO 13004KT 10SM -RA SCT014 BKN020 OVC050 04/02 A2960 RMK AO2 SLP023 P0000 60000 T00390017 10039 20011 58005
PAHX 152334Z AUTO 13005KT 10SM -RA BKN014 OVC020 04/02 A2960 RMK AO2 P0000
PAHX 152325Z AUTO 14003KT 10SM SCT011 OVC018 04/02 A2960 RMK AO2 RAE20 P0000
PAHX 152312Z AUTO 00000KT 10SM -RA BKN013 OVC019 03/02 A2961 RMK AO2 P0000
PAHX 152256Z AUTO 00000KT 10SM -RA OVC009 03/02 A2961 RMK AO2 UPB15E21 CIG 008V012 SLP027 P0000 T00330022
PAHX 152213Z AUTO 14003KT 10SM -RA BKN009 OVC033 03/02 A2961 RMK AO2 CIG 006V012 P0000
PAHX 152204Z AUTO 00000KT 10SM -RA SCT007 OVC033 03/02 A2961 RMK AO2 P0000
PAHX 152156Z AUTO 17003KT 10SM -RA BKN007 OVC035 03/02 A2961 RMK AO2 UPB22E40RAB40 SLP028 P0000 T00280017
PAHX 152140Z AUTO 14003KT 10SM -RA BKN007 BKN026 OVC031 03/02 A2961 RMK AO2 UPB22E40RAB40 P0000